sensor_id;sensor_type;location;lat;lon;timestamp;pressure;altitude;pressure_sealevel;temperature
58102;BMP280;52034;51.926;6.320;2023-07-20T00:00:25;101378.19;;;19.40
58102;BMP280;52034;51.926;6.320;2023-07-20T00:01:26;101376.75;;;19.37
58102;BMP280;52034;51.926;6.320;2023-07-20T00:02:26;101378.88;;;19.39
58102;BMP280;52034;51.926;6.320;2023-07-20T00:03:26;101382.47;;;19.43
58102;BMP280;52034;51.926;6.320;2023-07-20T00:04:27;101391.00;;;19.39
58102;BMP280;52034;51.926;6.320;2023-07-20T00:05:27;101383.88;;;19.38
58102;BMP280;52034;51.926;6.320;2023-07-20T00:06:28;101380.31;;;19.38
58102;BMP280;52034;51.926;6.320;2023-07-20T00:07:28;101388.88;;;19.38
58102;BMP280;52034;51.926;6.320;2023-07-20T00:08:28;101383.13;;;19.36
58102;BMP280;52034;51.926;6.320;2023-07-20T00:09:29;101379.59;;;19.37
58102;BMP280;52034;51.926;6.320;2023-07-20T00:10:29;101382.47;;;19.41
58102;BMP280;52034;51.926;6.320;2023-07-20T00:11:30;101385.31;;;19.41
58102;BMP280;52034;51.926;6.320;2023-07-20T00:12:30;101383.91;;;19.42
58102;BMP280;52034;51.926;6.320;2023-07-20T00:13:30;101383.91;;;19.42
58102;BMP280;52034;51.926;6.320;2023-07-20T00:14:31;101380.38;;;19.46
58102;BMP280;52034;51.926;6.320;2023-07-20T00:15:32;101383.91;;;19.42
58102;BMP280;52034;51.926;6.320;2023-07-20T00:16:32;101386.00;;;19.38
58102;BMP280;52034;51.926;6.320;2023-07-20T00:17:33;101377.44;;;19.34
58102;BMP280;52034;51.926;6.320;2023-07-20T00:18:33;101383.06;;;19.28
58102;BMP280;52034;51.926;6.320;2023-07-20T00:19:33;101379.50;;;19.27
58102;BMP280;52034;51.926;6.320;2023-07-20T00:20:35;101383.78;;;19.28
58102;BMP280;52034;51.926;6.320;2023-07-20T00:21:35;101385.19;;;19.25
58102;BMP280;52034;51.926;6.320;2023-07-20T00:22:37;101381.66;;;19.29
58102;BMP280;52034;51.926;6.320;2023-07-20T00:23:37;101385.91;;;19.28
58102;BMP280;52034;51.926;6.320;2023-07-20T00:24:38;101368.84;;;19.28
58102;BMP280;52034;51.926;6.320;2023-07-20T00:25:38;101375.22;;;19.28
58102;BMP280;52034;51.926;6.320;2023-07-20T00:26:38;101378.09;;;19.30
58102;BMP280;52034;51.926;6.320;2023-07-20T00:27:39;101372.41;;;19.30
58102;BMP280;52034;51.926;6.320;2023-07-20T00:28:39;101372.44;;;19.32
58102;BMP280;52034;51.926;6.320;2023-07-20T00:29:39;101369.59;;;19.32
58102;BMP280;52034;51.926;6.320;2023-07-20T00:30:40;101376.66;;;19.27
58102;BMP280;52034;51.926;6.320;2023-07-20T00:31:40;101371.66;;;19.26
58102;BMP280;52034;51.926;6.320;2023-07-20T00:32:44;101369.50;;;19.22
58102;BMP280;52034;51.926;6.320;2023-07-20T00:33:45;101364.53;;;19.21
58102;BMP280;52034;51.926;6.320;2023-07-20T00:34:45;101366.59;;;19.18
58102;BMP280;52034;51.926;6.320;2023-07-20T00:35:45;101374.41;;;19.16
58102;BMP280;52034;51.926;6.320;2023-07-20T00:36:46;101381.47;;;19.11
58102;BMP280;52034;51.926;6.320;2023-07-20T00:37:46;101379.34;;;19.09
58102;BMP280;52034;51.926;6.320;2023-07-20T00:38:47;101372.91;;;19.07
58102;BMP280;52034;51.926;6.320;2023-07-20T00:39:47;101372.09;;;18.94
58102;BMP280;52034;51.926;6.320;2023-07-20T00:40:47;101367.72;;;18.87
58102;BMP280;52034;51.926;6.320;2023-07-20T00:41:52;101374.06;;;18.82
58102;BMP280;52034;51.926;6.320;2023-07-20T00:42:52;101369.13;;;18.84
58102;BMP280;52034;51.926;6.320;2023-07-20T00:43:57;101374.09;;;18.84
58102;BMP280;52034;51.926;6.320;2023-07-20T00:44:57;101367.69;;;18.83
58102;BMP280;52034;51.926;6.320;2023-07-20T00:45:58;101366.97;;;18.83
58102;BMP280;52034;51.926;6.320;2023-07-20T00:46:59;101364.78;;;18.77
58102;BMP280;52034;51.926;6.320;2023-07-20T00:48:01;101363.34;;;18.76
58102;BMP280;52034;51.926;6.320;2023-07-20T00:49:02;101361.88;;;18.73
58102;BMP280;52034;51.926;6.320;2023-07-20T00:50:04;101366.88;;;18.75
58102;BMP280;52034;51.926;6.320;2023-07-20T00:51:06;101360.47;;;18.74
58102;BMP280;52034;51.926;6.320;2023-07-20T00:52:07;101365.50;;;18.76
58102;BMP280;52034;51.926;6.320;2023-07-20T00:53:07;101362.59;;;18.74
58102;BMP280;52034;51.926;6.320;2023-07-20T00:54:08;101374.06;;;18.80
58102;BMP280;52034;51.926;6.320;2023-07-20T00:55:10;101365.47;;;18.78
58102;BMP280;52034;51.926;6.320;2023-07-20T00:56:10;101370.47;;;18.77
58102;BMP280;52034;51.926;6.320;2023-07-20T00:57:14;101359.78;;;18.72
58102;BMP280;52034;51.926;6.320;2023-07-20T00:58:14;101374.63;;;18.68
58102;BMP280;52034;51.926;6.320;2023-07-20T00:59:15;101366.84;;;18.71
58102;BMP280;52034;51.926;6.320;2023-07-20T01:00:15;101374.72;;;18.74
58102;BMP280;52034;51.926;6.320;2023-07-20T01:01:17;101363.31;;;18.72
58102;BMP280;52034;51.926;6.320;2023-07-20T01:02:18;101361.91;;;18.75
58102;BMP280;52034;51.926;6.320;2023-07-20T01:03:18;101372.56;;;18.75
58102;BMP280;52034;51.926;6.320;2023-07-20T01:04:19;101366.16;;;18.72
58102;BMP280;52034;51.926;6.320;2023-07-20T01:05:20;101369.00;;;18.72
58102;BMP280;52034;51.926;6.320;2023-07-20T01:06:36;101367.53;;;18.69
58102;BMP280;52034;51.926;6.320;2023-07-20T01:07:43;101372.47;;;18.63
58102;BMP280;52034;51.926;6.320;2023-07-20T01:09:00;101368.84;;;18.58
58102;BMP280;52034;51.926;6.320;2023-07-20T01:10:36;101371.69;;;18.58
58102;BMP280;52034;51.926;6.320;2023-07-20T01:11:37;101371.56;;;18.48
58102;BMP280;52034;51.926;6.320;2023-07-20T01:12:41;101375.84;;;18.49
58102;BMP280;52034;51.926;6.320;2023-07-20T01:13:43;101368.03;;;18.50
58102;BMP280;52034;51.926;6.320;2023-07-20T01:14:44;101375.13;;;18.49
58102;BMP280;52034;51.926;6.320;2023-07-20T01:15:56;101378.69;;;18.49
58102;BMP280;52034;51.926;6.320;2023-07-20T01:16:57;101376.56;;;18.50
58102;BMP280;52034;51.926;6.320;2023-07-20T01:17:58;101382.22;;;18.48
58102;BMP280;52034;51.926;6.320;2023-07-20T01:19:01;101379.41;;;18.52
58102;BMP280;52034;51.926;6.320;2023-07-20T01:20:02;101382.31;;;18.54
58102;BMP280;52034;51.926;6.320;2023-07-20T01:21:18;101375.06;;;18.45
58102;BMP280;52034;51.926;6.320;2023-07-20T01:23:49;101388.59;;;18.46
58102;BMP280;52034;51.926;6.320;2023-07-20T01:26:21;101390.03;;;18.47
58102;BMP280;52034;51.926;6.320;2023-07-20T01:31:57;101379.97;;;18.38
58102;BMP280;52034;51.926;6.320;2023-07-20T01:32:58;101372.88;;;18.39
58102;BMP280;52034;51.926;6.320;2023-07-20T01:34:01;101375.75;;;18.43
58102;BMP280;52034;51.926;6.320;2023-07-20T01:35:02;101374.41;;;18.48
58102;BMP280;52034;51.926;6.320;2023-07-20T01:36:05;101377.25;;;18.48
58102;BMP280;52034;51.926;6.320;2023-07-20T01:37:05;101380.06;;;18.44
58102;BMP280;52034;51.926;6.320;2023-07-20T01:38:07;101382.94;;;18.48
58102;BMP280;52034;51.926;6.320;2023-07-20T01:39:08;101378.72;;;18.51
58102;BMP280;52034;51.926;6.320;2023-07-20T01:40:10;101389.41;;;18.55
58102;BMP280;52034;51.926;6.320;2023-07-20T01:41:10;101383.03;;;18.56
58102;BMP280;52034;51.926;6.320;2023-07-20T01:42:12;101372.97;;;18.47
58102;BMP280;52034;51.926;6.320;2023-07-20T01:43:12;101385.16;;;18.54
58102;BMP280;52034;51.926;6.320;2023-07-20T01:44:13;101382.34;;;18.60
58102;BMP280;52034;51.926;6.320;2023-07-20T01:45:13;101385.94;;;18.60
58102;BMP280;52034;51.926;6.320;2023-07-20T01:46:14;101382.38;;;18.62
58102;BMP280;52034;51.926;6.320;2023-07-20T01:47:14;101377.41;;;18.62
58102;BMP280;52034;51.926;6.320;2023-07-20T01:48:14;101383.81;;;18.65
58102;BMP280;52034;51.926;6.320;2023-07-20T01:49:15;101379.59;;;18.66
58102;BMP280;52034;51.926;6.320;2023-07-20T01:50:16;101383.88;;;18.67
58102;BMP280;52034;51.926;6.320;2023-07-20T01:51:16;101378.91;;;18.67
58102;BMP280;52034;51.926;6.320;2023-07-20T01:52:18;101384.59;;;18.69
58102;BMP280;52034;51.926;6.320;2023-07-20T01:53:19;101380.31;;;18.68
58102;BMP280;52034;51.926;6.320;2023-07-20T01:54:22;101381.06;;;18.69
58102;BMP280;52034;51.926;6.320;2023-07-20T01:55:22;101375.25;;;18.61
58102;BMP280;52034;51.926;6.320;2023-07-20T01:56:23;101378.16;;;18.63
58102;BMP280;52034;51.926;6.320;2023-07-20T01:57:24;101388.78;;;18.62
58102;BMP280;52034;51.926;6.320;2023-07-20T01:58:24;101378.09;;;18.61
58102;BMP280;52034;51.926;6.320;2023-07-20T01:59:24;101378.84;;;18.63
58102;BMP280;52034;51.926;6.320;2023-07-20T02:00:25;101374.50;;;18.56
58102;BMP280;52034;51.926;6.320;2023-07-20T02:01:25;101378.78;;;18.59
58102;BMP280;52034;51.926;6.320;2023-07-20T02:02:28;101379.50;;;18.60
58102;BMP280;52034;51.926;6.320;2023-07-20T02:03:29;101370.94;;;18.54
58102;BMP280;52034;51.926;6.320;2023-07-20T02:04:29;101380.88;;;18.53
58102;BMP280;52034;51.926;6.320;2023-07-20T02:05:29;101382.94;;;18.50
58102;BMP280;52034;51.926;6.320;2023-07-20T02:06:30;101379.38;;;18.48
58102;BMP280;52034;51.926;6.320;2023-07-20T02:07:30;101375.78;;;18.45
58102;BMP280;52034;51.926;6.320;2023-07-20T02:08:31;101376.47;;;18.44
58102;BMP280;52034;51.926;6.320;2023-07-20T02:09:31;101377.91;;;18.45
58102;BMP280;52034;51.926;6.320;2023-07-20T02:10:31;101380.06;;;18.44
58102;BMP280;52034;51.926;6.320;2023-07-20T02:11:32;101382.94;;;18.48
58102;BMP280;52034;51.926;6.320;2023-07-20T02:12:32;101374.25;;;18.36
58102;BMP280;52034;51.926;6.320;2023-07-20T02:13:32;101388.53;;;18.42
58102;BMP280;52034;51.926;6.320;2023-07-20T02:14:33;101381.41;;;18.39
58102;BMP280;52034;51.926;6.320;2023-07-20T02:15:33;101380.59;;;18.33
58102;BMP280;52034;51.926;6.320;2023-07-20T02:16:33;101371.28;;;18.26
58102;BMP280;52034;51.926;6.320;2023-07-20T02:17:34;101383.38;;;18.27
58102;BMP280;52034;51.926;6.320;2023-07-20T02:18:34;101382.53;;;18.18
58102;BMP280;52034;51.926;6.320;2023-07-20T02:19:37;101380.41;;;18.17
58102;BMP280;52034;51.926;6.320;2023-07-20T02:20:37;101388.22;;;18.18
58102;BMP280;52034;51.926;6.320;2023-07-20T02:21:38;101380.31;;;18.11
58102;BMP280;52034;51.926;6.320;2023-07-20T02:22:39;101389.53;;;18.11
58102;BMP280;52034;51.926;6.320;2023-07-20T02:23:40;101385.88;;;18.03
58102;BMP280;52034;51.926;6.320;2023-07-20T02:24:40;101384.38;;;18.00
58102;BMP280;52034;51.926;6.320;2023-07-20T02:25:40;101385.75;;;17.95
58102;BMP280;52034;51.926;6.320;2023-07-20T02:26:41;101385.13;;;18.00
58102;BMP280;52034;51.926;6.320;2023-07-20T02:27:42;101378.59;;;17.92
58102;BMP280;52034;51.926;6.320;2023-07-20T02:28:42;101378.50;;;17.84
58102;BMP280;52034;51.926;6.320;2023-07-20T02:29:43;101389.78;;;17.80
58102;BMP280;52034;51.926;6.320;2023-07-20T02:30:45;101379.06;;;17.75
58102;BMP280;52034;51.926;6.320;2023-07-20T02:31:46;101389.66;;;17.72
58102;BMP280;52034;51.926;6.320;2023-07-20T02:32:46;101388.94;;;17.72
58102;BMP280;52034;51.926;6.320;2023-07-20T02:33:48;101387.41;;;17.65
58102;BMP280;52034;51.926;6.320;2023-07-20T02:34:49;101387.41;;;17.65
58102;BMP280;52034;51.926;6.320;2023-07-20T02:35:49;101381.63;;;17.59
58102;BMP280;52034;51.926;6.320;2023-07-20T02:36:49;101382.34;;;17.57
58102;BMP280;52034;51.926;6.320;2023-07-20T02:37:50;101384.53;;;17.61
58102;BMP280;52034;51.926;6.320;2023-07-20T02:38:50;101380.91;;;17.56
58102;BMP280;52034;51.926;6.320;2023-07-20T02:39:51;101376.63;;;17.55
58102;BMP280;52034;51.926;6.320;2023-07-20T02:40:51;101383.09;;;17.60
58102;BMP280;52034;51.926;6.320;2023-07-20T02:41:51;101386.69;;;17.64
58102;BMP280;52034;51.926;6.320;2023-07-20T02:42:52;101384.69;;;17.71
58102;BMP280;52034;51.926;6.320;2023-07-20T02:43:52;101390.41;;;17.75
58102;BMP280;52034;51.926;6.320;2023-07-20T02:44:52;101377.66;;;17.76
58102;BMP280;52034;51.926;6.320;2023-07-20T02:45:53;101381.94;;;17.77
58102;BMP280;52034;51.926;6.320;2023-07-20T02:46:53;101380.63;;;17.83
58102;BMP280;52034;51.926;6.320;2023-07-20T02:47:53;101373.53;;;17.84
58102;BMP280;52034;51.926;6.320;2023-07-20T02:48:54;101389.19;;;17.87
58102;BMP280;52034;51.926;6.320;2023-07-20T02:49:54;101392.09;;;17.89
58102;BMP280;52034;51.926;6.320;2023-07-20T02:50:54;101385.72;;;17.93
58102;BMP280;52034;51.926;6.320;2023-07-20T02:51:55;101387.88;;;17.94
58102;BMP280;52034;51.926;6.320;2023-07-20T02:52:55;101387.88;;;17.94
58102;BMP280;52034;51.926;6.320;2023-07-20T02:53:56;101387.19;;;17.96
58102;BMP280;52034;51.926;6.320;2023-07-20T02:54:56;101394.94;;;17.91
58102;BMP280;52034;51.926;6.320;2023-07-20T02:55:57;101392.81;;;17.92
58102;BMP280;52034;51.926;6.320;2023-07-20T02:56:57;101389.97;;;17.92
58102;BMP280;52034;51.926;6.320;2023-07-20T02:57:57;101394.94;;;17.91
58102;BMP280;52034;51.926;6.320;2023-07-20T02:58:58;101402.00;;;17.90
58102;BMP280;52034;51.926;6.320;2023-07-20T02:59:58;101406.28;;;17.91
58102;BMP280;52034;51.926;6.320;2023-07-20T03:00:58;101406.28;;;17.89
58102;BMP280;52034;51.926;6.320;2023-07-20T03:01:59;101406.91;;;17.86
58102;BMP280;52034;51.926;6.320;2023-07-20T03:02:59;101402.72;;;17.89
58102;BMP280;52034;51.926;6.320;2023-07-20T03:03:59;101395.56;;;17.84
58102;BMP280;52034;51.926;6.320;2023-07-20T03:05:00;101404.78;;;17.84
58102;BMP280;52034;51.926;6.320;2023-07-20T03:06:01;101401.91;;;17.83
58102;BMP280;52034;51.926;6.320;2023-07-20T03:07:06;101404.72;;;17.81
58102;BMP280;52034;51.926;6.320;2023-07-20T03:08:08;101391.16;;;17.75
58102;BMP280;52034;51.926;6.320;2023-07-20T03:09:09;101401.78;;;17.75
58102;BMP280;52034;51.926;6.320;2023-07-20T03:10:10;101405.28;;;17.73
58102;BMP280;52034;51.926;6.320;2023-07-20T03:11:10;101399.63;;;17.71
58102;BMP280;52034;51.926;6.320;2023-07-20T03:12:11;101398.88;;;17.71
58102;BMP280;52034;51.926;6.320;2023-07-20T03:13:11;101396.59;;;17.61
58102;BMP280;52034;51.926;6.320;2023-07-20T03:14:13;101407.34;;;17.67
58102;BMP280;52034;51.926;6.320;2023-07-20T03:15:14;101407.34;;;17.67
58102;BMP280;52034;51.926;6.320;2023-07-20T03:16:17;101405.91;;;17.66
58102;BMP280;52034;51.926;6.320;2023-07-20T03:17:17;101409.41;;;17.64
58102;BMP280;52034;51.926;6.320;2023-07-20T03:18:20;101407.91;;;17.59
58102;BMP280;52034;51.926;6.320;2023-07-20T03:19:20;101411.50;;;17.60
58102;BMP280;52034;51.926;6.320;2023-07-20T03:20:21;101410.03;;;17.59
58102;BMP280;52034;51.926;6.320;2023-07-20T03:21:22;101417.19;;;17.62
58102;BMP280;52034;51.926;6.320;2023-07-20T03:22:22;101411.44;;;17.58
58102;BMP280;52034;51.926;6.320;2023-07-20T03:23:24;101420.03;;;17.62
58102;BMP280;52034;51.926;6.320;2023-07-20T03:24:26;101419.31;;;17.61
58102;BMP280;52034;51.926;6.320;2023-07-20T03:25:27;101426.44;;;17.64
58102;BMP280;52034;51.926;6.320;2023-07-20T03:26:28;101416.53;;;17.65
58102;BMP280;52034;51.926;6.320;2023-07-20T03:27:28;101420.78;;;17.62
58102;BMP280;52034;51.926;6.320;2023-07-20T03:28:29;101426.50;;;17.66
58102;BMP280;52034;51.926;6.320;2023-07-20T03:29:31;101425.06;;;17.65
58102;BMP280;52034;51.926;6.320;2023-07-20T03:30:34;101434.28;;;17.66
58102;BMP280;52034;51.926;6.320;2023-07-20T03:31:35;101422.16;;;17.61
58102;BMP280;52034;51.926;6.320;2023-07-20T03:32:35;101423.59;;;17.62
58102;BMP280;52034;51.926;6.320;2023-07-20T03:33:36;101426.34;;;17.58
58102;BMP280;52034;51.926;6.320;2023-07-20T03:34:36;101420.78;;;17.62
58102;BMP280;52034;51.926;6.320;2023-07-20T03:35:37;101425.69;;;17.60
58102;BMP280;52034;51.926;6.320;2023-07-20T03:36:38;101422.06;;;17.55
58102;BMP280;52034;51.926;6.320;2023-07-20T03:37:38;101432.03;;;17.58
58102;BMP280;52034;51.926;6.320;2023-07-20T03:38:39;101433.41;;;17.55
58102;BMP280;52034;51.926;6.320;2023-07-20T03:39:39;101427.66;;;17.51
58102;BMP280;52034;51.926;6.320;2023-07-20T03:40:48;101416.22;;;17.45
58102;BMP280;52034;51.926;6.320;2023-07-20T03:41:49;101423.31;;;17.46
58102;BMP280;52034;51.926;6.320;2023-07-20T03:42:49;101428.22;;;17.42
58102;BMP280;52034;51.926;6.320;2023-07-20T03:43:50;101416.09;;;17.39
58102;BMP280;52034;51.926;6.320;2023-07-20T03:44:50;101425.97;;;17.36
58102;BMP280;52034;51.926;6.320;2023-07-20T03:45:51;101419.63;;;17.38
58102;BMP280;52034;51.926;6.320;2023-07-20T03:46:52;101424.53;;;17.33
58102;BMP280;52034;51.926;6.320;2023-07-20T03:47:52;101424.44;;;17.29
58102;BMP280;52034;51.926;6.320;2023-07-20T03:48:53;101415.06;;;17.21
58102;BMP280;52034;51.926;6.320;2023-07-20T03:49:53;101419.38;;;17.26
58102;BMP280;52034;51.926;6.320;2023-07-20T03:50:54;101427.78;;;17.20
58102;BMP280;52034;51.926;6.320;2023-07-20T03:51:54;101423.56;;;17.21
58102;BMP280;52034;51.926;6.320;2023-07-20T03:52:55;101433.53;;;17.22
58102;BMP280;52034;51.926;6.320;2023-07-20T03:53:56;101430.69;;;17.22
58102;BMP280;52034;51.926;6.320;2023-07-20T03:54:56;101430.69;;;17.24
58102;BMP280;52034;51.926;6.320;2023-07-20T03:55:57;101427.84;;;17.22
58102;BMP280;52034;51.926;6.320;2023-07-20T03:56:57;101427.09;;;17.21
58102;BMP280;52034;51.926;6.320;2023-07-20T03:57:58;101436.28;;;17.20
58102;BMP280;52034;51.926;6.320;2023-07-20T03:58:58;101437.63;;;17.15
58102;BMP280;52034;51.926;6.320;2023-07-20T03:59:58;101429.88;;;17.17
58102;BMP280;52034;51.926;6.320;2023-07-20T04:00:59;101424.25;;;17.19
58102;BMP280;52034;51.926;6.320;2023-07-20T04:01:59;101433.47;;;17.20
58102;BMP280;52034;51.926;6.320;2023-07-20T04:03:00;101428.44;;;17.16
58102;BMP280;52034;51.926;6.320;2023-07-20T04:04:00;101425.66;;;17.18
58102;BMP280;52034;51.926;6.320;2023-07-20T04:05:01;101424.94;;;17.20
58102;BMP280;52034;51.926;6.320;2023-07-20T04:06:01;101426.44;;;17.23
58102;BMP280;52034;51.926;6.320;2023-07-20T04:07:02;101424.28;;;17.21
58102;BMP280;52034;51.926;6.320;2023-07-20T04:08:02;101430.69;;;17.24
58102;BMP280;52034;51.926;6.320;2023-07-20T04:09:03;101423.56;;;17.21
58102;BMP280;52034;51.926;6.320;2023-07-20T04:10:05;101429.28;;;17.23
58102;BMP280;52034;51.926;6.320;2023-07-20T04:11:05;101430.63;;;17.20
58102;BMP280;52034;51.926;6.320;2023-07-20T04:12:06;101432.16;;;17.25
58102;BMP280;52034;51.926;6.320;2023-07-20T04:13:06;101433.66;;;17.30
58102;BMP280;52034;51.926;6.320;2023-07-20T04:14:07;101442.22;;;17.32
58102;BMP280;52034;51.926;6.320;2023-07-20T04:15:08;101436.53;;;17.32
58102;BMP280;52034;51.926;6.320;2023-07-20T04:16:08;101440.88;;;17.37
58102;BMP280;52034;51.926;6.320;2023-07-20T04:17:08;101443.72;;;17.37
58102;BMP280;52034;51.926;6.320;2023-07-20T04:18:12;101442.28;;;17.36
58102;BMP280;52034;51.926;6.320;2023-07-20T04:19:13;101444.50;;;17.41
58102;BMP280;52034;51.926;6.320;2023-07-20T04:20:13;101443.75;;;17.39
58102;BMP280;52034;51.926;6.320;2023-07-20T04:21:13;101443.84;;;17.43
58102;BMP280;52034;51.926;6.320;2023-07-20T04:22:13;101448.91;;;17.48
58102;BMP280;52034;51.926;6.320;2023-07-20T04:23:15;101436.13;;;17.49
58102;BMP280;52034;51.926;6.320;2023-07-20T04:24:16;101453.25;;;17.53
58102;BMP280;52034;51.926;6.320;2023-07-20T04:25:19;101449.78;;;17.59
58102;BMP280;52034;51.926;6.320;2023-07-20T04:26:20;101454.84;;;17.64
58102;BMP280;52034;51.926;6.320;2023-07-20T04:27:20;101447.00;;;17.63
58102;BMP280;52034;51.926;6.320;2023-07-20T04:28:21;101454.25;;;17.70
58102;BMP280;52034;51.926;6.320;2023-07-20T04:29:23;101454.31;;;17.74
58102;BMP280;52034;51.926;6.320;2023-07-20T04:30:23;101450.78;;;17.75
58102;BMP280;52034;51.926;6.320;2023-07-20T04:31:24;101457.19;;;17.76
58102;BMP280;52034;51.926;6.320;2023-07-20T04:32:24;101449.41;;;17.78
58102;BMP280;52034;51.926;6.320;2023-07-20T04:33:26;101451.53;;;17.77
58102;BMP280;52034;51.926;6.320;2023-07-20T04:34:29;101451.59;;;17.81
58102;BMP280;52034;51.926;6.320;2023-07-20T04:35:50;101452.28;;;17.80
58102;BMP280;52034;51.926;6.320;2023-07-20T04:36:54;101448.06;;;17.83
58102;BMP280;52034;51.926;6.320;2023-07-20T04:37:55;101454.50;;;17.85
58102;BMP280;52034;51.926;6.320;2023-07-20T04:38:56;101456.66;;;17.87
58102;BMP280;52034;51.926;6.320;2023-07-20T04:39:57;101458.91;;;17.92
58102;BMP280;52034;51.926;6.320;2023-07-20T04:40:57;101461.06;;;17.94
58102;BMP280;52034;51.926;6.320;2023-07-20T04:41:58;101453.28;;;17.98
58102;BMP280;52034;51.926;6.320;2023-07-20T04:42:59;101459.06;;;18.04
58102;BMP280;52034;51.926;6.320;2023-07-20T04:43:59;101454.75;;;18.01
58102;BMP280;52034;51.926;6.320;2023-07-20T04:45:03;101459.75;;;18.03
58102;BMP280;52034;51.926;6.320;2023-07-20T04:46:03;101456.25;;;18.06
58102;BMP280;52034;51.926;6.320;2023-07-20T04:47:06;101458.44;;;18.08
58102;BMP280;52034;51.926;6.320;2023-07-20T04:48:12;101460.59;;;18.11
58102;BMP280;52034;51.926;6.320;2023-07-20T04:49:17;101472.09;;;18.19
58102;BMP280;52034;51.926;6.320;2023-07-20T04:50:19;101467.88;;;18.22
58102;BMP280;52034;51.926;6.320;2023-07-20T04:51:19;101470.06;;;18.28
58102;BMP280;52034;51.926;6.320;2023-07-20T04:52:22;101467.97;;;18.28
58102;BMP280;52034;51.926;6.320;2023-07-20T04:53:23;101469.44;;;18.31
58102;BMP280;52034;51.926;6.320;2023-07-20T04:54:23;101456.75;;;18.38
58102;BMP280;52034;51.926;6.320;2023-07-20T04:55:24;101463.13;;;18.39
58102;BMP280;52034;51.926;6.320;2023-07-20T04:56:25;101465.38;;;18.44
58102;BMP280;52034;51.926;6.320;2023-07-20T04:57:27;101467.50;;;18.46
58102;BMP280;52034;51.926;6.320;2023-07-20T04:58:27;101468.94;;;18.47
58102;BMP280;52034;51.926;6.320;2023-07-20T04:59:29;101477.50;;;18.49
58102;BMP280;52034;51.926;6.320;2023-07-20T05:00:30;101469.72;;;18.53
58102;BMP280;52034;51.926;6.320;2023-07-20T05:01:30;101473.38;;;18.60
58102;BMP280;52034;51.926;6.320;2023-07-20T05:02:30;101475.53;;;18.61
58102;BMP280;52034;51.926;6.320;2023-07-20T05:03:31;101477.66;;;18.61
58102;BMP280;52034;51.926;6.320;2023-07-20T05:04:31;101471.97;;;18.61
58102;BMP280;52034;51.926;6.320;2023-07-20T05:05:32;101470.56;;;18.62
58102;BMP280;52034;51.926;6.320;2023-07-20T05:06:33;101472.78;;;18.67
58102;BMP280;52034;51.926;6.320;2023-07-20T05:07:34;101475.66;;;18.73
58102;BMP280;52034;51.926;6.320;2023-07-20T05:08:34;101472.81;;;18.73
58102;BMP280;52034;51.926;6.320;2023-07-20T05:09:35;101470.75;;;18.76
58102;BMP280;52034;51.926;6.320;2023-07-20T05:10:35;101474.31;;;18.78
58102;BMP280;52034;51.926;6.320;2023-07-20T05:11:36;101475.81;;;18.83
58102;BMP280;52034;51.926;6.320;2023-07-20T05:12:37;101469.44;;;18.85
58102;BMP280;52034;51.926;6.320;2023-07-20T05:13:37;101471.56;;;18.86
58102;BMP280;52034;51.926;6.320;2023-07-20T05:14:38;101473.72;;;18.86
58102;BMP280;52034;51.926;6.320;2023-07-20T05:15:39;101478.03;;;18.89
58102;BMP280;52034;51.926;6.320;2023-07-20T05:16:41;101465.13;;;18.84
58102;BMP280;52034;51.926;6.320;2023-07-20T05:17:42;101468.69;;;18.80
58102;BMP280;52034;51.926;6.320;2023-07-20T05:18:42;101467.88;;;18.72
58102;BMP280;52034;51.926;6.320;2023-07-20T05:19:43;101459.94;;;18.64
58102;BMP280;52034;51.926;6.320;2023-07-20T05:20:45;101457.06;;;18.62
58102;BMP280;52034;51.926;6.320;2023-07-20T05:21:46;101466.31;;;18.65
58102;BMP280;52034;51.926;6.320;2023-07-20T05:22:46;101468.50;;;18.68
58102;BMP280;52034;51.926;6.320;2023-07-20T05:23:47;101475.66;;;18.71
58102;BMP280;52034;51.926;6.320;2023-07-20T05:24:48;101471.53;;;18.80
58102;BMP280;52034;51.926;6.320;2023-07-20T05:25:55;101482.25;;;18.88
58102;BMP280;52034;51.926;6.320;2023-07-20T05:26:57;101476.63;;;18.92
58102;BMP280;52034;51.926;6.320;2023-07-20T05:27:57;101475.84;;;18.85
58102;BMP280;52034;51.926;6.320;2023-07-20T05:28:58;101476.50;;;18.82
58102;BMP280;52034;51.926;6.320;2023-07-20T05:29:58;101483.00;;;18.90
58102;BMP280;52034;51.926;6.320;2023-07-20T05:30:58;101478.78;;;18.93
58102;BMP280;52034;51.926;6.320;2023-07-20T05:31:59;101491.75;;;19.06
58102;BMP280;52034;51.926;6.320;2023-07-20T05:33:00;101488.22;;;19.08
58102;BMP280;52034;51.926;6.320;2023-07-20T05:34:00;101488.25;;;19.12
58102;BMP280;52034;51.926;6.320;2023-07-20T05:35:01;101488.28;;;19.16
58102;BMP280;52034;51.926;6.320;2023-07-20T05:36:01;101487.63;;;19.19
58102;BMP280;52034;51.926;6.320;2023-07-20T05:37:01;101496.22;;;19.25
58102;BMP280;52034;51.926;6.320;2023-07-20T05:38:02;101492.66;;;19.25
58102;BMP280;52034;51.926;6.320;2023-07-20T05:39:04;101498.38;;;19.25
58102;BMP280;52034;51.926;6.320;2023-07-20T05:40:05;101504.03;;;19.27
58102;BMP280;52034;51.926;6.320;2023-07-20T05:41:06;101504.13;;;19.31
58102;BMP280;52034;51.926;6.320;2023-07-20T05:42:10;101502.78;;;19.38
58102;BMP280;52034;51.926;6.320;2023-07-20T05:43:10;101509.22;;;19.42
58102;BMP280;52034;51.926;6.320;2023-07-20T05:44:11;101506.31;;;19.38
58102;BMP280;52034;51.926;6.320;2023-07-20T05:45:12;101506.41;;;19.46
58102;BMP280;52034;51.926;6.320;2023-07-20T05:46:12;101510.00;;;19.53
58102;BMP280;52034;51.926;6.320;2023-07-20T05:47:13;101501.44;;;19.49
58102;BMP280;52034;51.926;6.320;2023-07-20T05:48:13;101516.50;;;19.59
58102;BMP280;52034;51.926;6.320;2023-07-20T05:49:13;101501.47;;;19.53
58102;BMP280;52034;51.926;6.320;2023-07-20T05:50:14;101515.06;;;19.60
58102;BMP280;52034;51.926;6.320;2023-07-20T05:51:15;101513.72;;;19.65
58102;BMP280;52034;51.926;6.320;2023-07-20T05:52:15;101518.72;;;19.67
58102;BMP280;52034;51.926;6.320;2023-07-20T05:53:15;101518.09;;;19.76
58102;BMP280;52034;51.926;6.320;2023-07-20T05:54:16;101515.25;;;19.78
58102;BMP280;52034;51.926;6.320;2023-07-20T05:55:16;101523.84;;;19.86